createdAt,value
2023-03-23T00:00:42.029Z,4.15
2023-03-23T00:05:38.205Z,3.05
2023-03-23T00:10:34.143Z,4.13
2023-03-23T00:15:26.094Z,4.13
2023-03-23T00:20:18.735Z,3.75
2023-03-23T00:25:10.692Z,5.30
2023-03-23T00:30:02.519Z,4.70
2023-03-23T00:35:00.039Z,4.10
2023-03-23T00:39:52.885Z,4.13
2023-03-23T00:44:44.932Z,7.45
2023-03-23T00:49:38.193Z,4.95
2023-03-23T00:54:30.259Z,3.20
2023-03-23T00:59:23.176Z,6.50
2023-03-23T01:04:17.054Z,2.92
2023-03-23T01:09:11.633Z,5.85
2023-03-23T01:14:03.512Z,5.35
2023-03-23T01:18:55.372Z,4.82
2023-03-23T01:23:47.820Z,5.63
2023-03-23T01:28:40.412Z,3.33
2023-03-23T01:33:32.971Z,4.88
2023-03-23T01:38:24.984Z,6.43
2023-03-23T01:43:17.412Z,8.90
2023-03-23T01:48:24.406Z,6.18
2023-03-23T01:53:16.278Z,4.47
2023-03-23T01:58:09.700Z,6.05
2023-03-23T02:03:02.789Z,4.10
2023-03-23T02:08:04.008Z,6.22
2023-03-23T02:13:01.809Z,5.97
2023-03-23T02:18:02.511Z,5.55
2023-03-23T02:23:42.659Z,6.35
2023-03-23T02:28:53.360Z,3.45
2023-03-23T02:33:56.758Z,3.47
2023-03-23T02:39:06.999Z,6.82
2023-03-23T02:43:59.567Z,4.43
2023-03-23T02:48:53.582Z,6.97
2023-03-23T02:53:46.656Z,6.55
2023-03-23T02:58:38.757Z,6.32
2023-03-23T03:03:31.509Z,3.67
2023-03-23T03:08:28.037Z,2.72
2023-03-23T03:13:42.000Z,4.63
2023-03-23T03:18:43.767Z,3.92
2023-03-23T03:23:38.257Z,3.88
2023-03-23T03:28:33.836Z,3.88
2023-03-23T03:33:28.783Z,3.28
2023-03-23T03:38:21.837Z,4.97
2023-03-23T03:43:19.092Z,4.45
2023-03-23T03:48:11.290Z,8.75
2023-03-23T03:53:04.316Z,6.70
2023-03-23T03:57:56.748Z,7.90
2023-03-23T04:03:10.133Z,8.25
2023-03-23T04:08:18.971Z,8.43
2023-03-23T04:13:10.788Z,8.23
2023-03-23T04:18:24.197Z,9.63
2023-03-23T04:23:24.123Z,9.23
2023-03-23T04:28:19.848Z,9.07
2023-03-23T04:33:59.672Z,10.50
2023-03-23T04:38:44.217Z,13.07
2023-03-23T04:43:43.406Z,13.18
2023-03-23T04:48:46.602Z,12.20
2023-03-23T04:53:45.131Z,11.63
2023-03-23T04:58:37.169Z,12.63
2023-03-23T05:03:49.573Z,15.88
2023-03-23T05:08:42.153Z,19.00
2023-03-23T05:13:34.515Z,18.15
2023-03-23T05:18:27.388Z,13.88
2023-03-23T05:23:21.732Z,13.10
2023-03-23T05:28:14.595Z,17.48
2023-03-23T05:33:32.869Z,13.73
2023-03-23T05:43:38.213Z,13.27
2023-03-23T05:48:48.007Z,17.35
2023-03-23T05:53:43.077Z,19.10
2023-03-23T05:58:37.020Z,18.63
2023-03-23T06:03:30.163Z,17.88
2023-03-23T06:08:34.625Z,19.55
2023-03-23T06:13:26.581Z,15.65
2023-03-23T06:18:21.782Z,18.27
2023-03-23T06:23:30.397Z,17.08
2023-03-23T06:28:23.247Z,11.63
2023-03-23T06:33:15.225Z,12.43
2023-03-23T06:38:27.455Z,20.42
2023-03-23T06:43:21.633Z,20.23
2023-03-23T06:48:19.976Z,13.93
2023-03-23T06:53:12.760Z,16.17
2023-03-23T06:58:09.732Z,13.48
2023-03-23T07:03:02.319Z,11.65
2023-03-23T07:07:54.872Z,14.02
2023-03-23T07:12:55.487Z,13.27
2023-03-23T07:17:49.497Z,11.10
2023-03-23T07:22:59.570Z,11.82
2023-03-23T07:28:20.818Z,10.88
2023-03-23T07:33:13.989Z,10.35
2023-03-23T07:38:08.051Z,11.23
2023-03-23T07:43:02.293Z,9.98
2023-03-23T07:48:21.099Z,11.57
2023-03-23T07:53:14.361Z,14.32
2023-03-23T07:58:09.696Z,12.20
2023-03-23T08:03:01.740Z,11.43
2023-03-23T08:08:01.177Z,16.20
2023-03-23T08:13:15.796Z,12.73
2023-03-23T08:18:07.692Z,15.88
2023-03-23T08:23:18.304Z,15.48
2023-03-23T08:28:28.766Z,17.55
2023-03-23T08:33:42.326Z,21.25
2023-03-23T08:38:56.941Z,19.63
2023-03-23T08:44:08.828Z,17.15
2023-03-23T08:49:00.624Z,18.67
2023-03-23T08:54:08.681Z,18.00
2023-03-23T08:59:32.771Z,23.58
2023-03-23T09:04:54.916Z,22.40
2023-03-23T09:09:55.876Z,23.40
2023-03-23T09:14:47.685Z,18.92
2023-03-23T09:19:39.770Z,19.98
2023-03-23T09:24:32.006Z,18.80
2023-03-23T09:29:23.850Z,21.70
2023-03-23T09:34:19.399Z,16.80
2023-03-23T09:39:12.653Z,16.58
2023-03-23T09:44:31.986Z,17.48
2023-03-23T09:49:26.776Z,20.60
2023-03-23T09:54:27.836Z,16.48
2023-03-23T09:59:56.373Z,13.25
2023-03-23T10:04:51.356Z,20.17
2023-03-23T10:09:45.273Z,15.23
2023-03-23T10:14:44.605Z,20.25
2023-03-23T10:19:43.692Z,18.17
2023-03-23T10:24:47.685Z,18.80
2023-03-23T10:29:46.979Z,22.83
2023-03-23T10:34:47.739Z,19.60
2023-03-23T10:39:55.784Z,21.83
2023-03-23T10:44:47.837Z,21.00
2023-03-23T10:49:45.024Z,17.85
2023-03-23T10:54:40.430Z,21.38
2023-03-23T10:59:34.720Z,23.05
2023-03-23T11:04:27.280Z,23.75
2023-03-23T11:09:21.992Z,19.48
2023-03-23T11:14:26.661Z,19.70
2023-03-23T11:19:28.217Z,19.67
2023-03-23T11:24:22.574Z,22.42
2023-03-23T11:29:21.028Z,19.48
2023-03-23T11:39:30.871Z,21.60
2023-03-23T11:44:25.022Z,18.08
2023-03-23T11:49:28.829Z,17.52
2023-03-23T11:54:47.634Z,16.55
2023-03-23T11:59:39.994Z,15.95
2023-03-23T12:04:39.035Z,20.00
2023-03-23T12:09:52.818Z,18.08
2023-03-23T12:14:44.544Z,15.38
2023-03-23T12:19:42.715Z,20.20
2023-03-23T12:25:23.296Z,21.75
2023-03-23T12:30:55.884Z,15.68
2023-03-23T12:36:06.879Z,18.55
2023-03-23T12:41:28.324Z,16.52
2023-03-23T12:46:45.807Z,16.63
2023-03-23T12:51:52.169Z,15.02
2023-03-23T12:56:54.184Z,13.05
2023-03-23T13:01:49.855Z,22.70
2023-03-23T13:06:44.376Z,17.92
2023-03-23T13:11:38.580Z,20.63
2023-03-23T13:16:46.548Z,21.10
2023-03-23T13:22:10.636Z,21.07
2023-03-23T13:27:02.751Z,20.20
2023-03-23T13:32:08.562Z,17.42
2023-03-23T13:37:12.869Z,18.25
2023-03-23T13:42:10.979Z,18.80
2023-03-23T13:47:18.100Z,23.60
2023-03-23T13:52:19.369Z,20.58
2023-03-23T13:57:38.645Z,19.63
2023-03-23T14:02:38.120Z,18.15
2023-03-23T14:07:30.005Z,19.50
2023-03-23T14:12:28.658Z,21.77
2023-03-23T14:17:27.249Z,19.90
2023-03-23T14:22:23.762Z,19.25
2023-03-23T14:27:16.832Z,20.17
2023-03-23T14:32:17.417Z,19.73
2023-03-23T14:37:17.203Z,19.00
2023-03-23T14:42:15.119Z,23.08
2023-03-23T14:47:11.969Z,20.33
2023-03-23T14:52:11.132Z,17.17
2023-03-23T14:57:15.347Z,22.38
2023-03-23T15:02:11.363Z,19.20
2023-03-23T15:07:06.121Z,24.88
2023-03-23T15:12:01.734Z,24.58
2023-03-23T15:16:56.092Z,26.63
2023-03-23T15:21:54.234Z,35.22
2023-03-23T15:26:46.095Z,34.85
2023-03-23T15:31:49.839Z,24.15
2023-03-23T15:36:42.509Z,26.85
2023-03-23T15:41:34.557Z,28.05
2023-03-23T15:46:29.976Z,32.25
2023-03-23T15:51:23.802Z,24.75
2023-03-23T15:56:15.893Z,27.63
2023-03-23T16:01:18.514Z,28.77
2023-03-23T16:06:23.638Z,23.83
2023-03-23T16:11:18.816Z,24.85
2023-03-23T16:16:18.004Z,26.38
2023-03-23T16:21:10.040Z,26.88
2023-03-23T16:26:01.964Z,31.15
2023-03-23T16:30:53.928Z,24.15
2023-03-23T16:35:46.351Z,20.35
2023-03-23T16:40:38.234Z,26.10
2023-03-23T16:45:30.394Z,25.83
2023-03-23T16:50:22.542Z,28.42
2023-03-23T16:55:17.342Z,23.10
2023-03-23T17:00:13.258Z,23.77
2023-03-23T17:05:05.618Z,21.77
2023-03-23T17:09:57.390Z,21.17
2023-03-23T17:14:49.337Z,20.77
2023-03-23T17:19:41.340Z,18.58
2023-03-23T17:24:33.096Z,20.80
2023-03-23T17:29:24.908Z,19.70
2023-03-23T17:34:18.801Z,18.75
2023-03-23T17:39:11.650Z,20.80
2023-03-23T17:44:03.489Z,17.23
2023-03-23T17:48:55.402Z,10.98
2023-03-23T17:53:48.852Z,11.52
2023-03-23T17:58:40.945Z,8.10
2023-03-23T18:03:33.286Z,13.73
2023-03-23T18:08:26.386Z,9.82
2023-03-23T18:13:18.278Z,6.32
2023-03-23T18:18:10.481Z,10.38
2023-03-23T18:23:03.841Z,10.55
2023-03-23T18:27:56.412Z,6.15
2023-03-23T18:32:56.854Z,8.50
2023-03-23T18:37:48.764Z,5.40
2023-03-23T18:42:42.348Z,6.13
2023-03-23T18:47:34.354Z,5.55
2023-03-23T18:52:26.872Z,4.28
2023-03-23T18:57:21.598Z,6.28
2023-03-23T19:02:14.120Z,6.82
2023-03-23T19:07:06.187Z,5.05
2023-03-23T19:11:58.022Z,10.35
2023-03-23T19:16:49.811Z,4.82
2023-03-23T19:21:46.926Z,7.05
2023-03-23T19:26:42.630Z,6.30
2023-03-23T19:31:34.451Z,5.20
2023-03-23T19:36:27.211Z,10.05
2023-03-23T19:41:19.419Z,5.32
2023-03-23T19:46:11.590Z,7.00
2023-03-23T19:51:07.210Z,26.77
2023-03-23T19:55:59.487Z,6.53
2023-03-23T20:00:51.338Z,6.32
2023-03-23T20:05:43.390Z,5.55
2023-03-23T20:10:35.632Z,4.97
2023-03-23T20:15:28.155Z,6.65
2023-03-23T20:20:20.417Z,6.97
2023-03-23T20:25:12.865Z,5.10
2023-03-23T20:30:07.672Z,8.15
2023-03-23T20:35:08.979Z,7.93
2023-03-23T20:40:02.399Z,7.78
2023-03-23T20:44:54.407Z,6.20
2023-03-23T20:49:53.326Z,7.65
2023-03-23T20:54:45.882Z,8.13
2023-03-23T20:59:37.731Z,6.47
2023-03-23T21:04:30.372Z,4.63
2023-03-23T21:09:22.255Z,11.18
2023-03-23T21:14:14.494Z,6.85
2023-03-23T21:19:06.656Z,6.88
2023-03-23T21:23:58.579Z,9.30
2023-03-23T21:28:50.947Z,6.15
2023-03-23T21:33:43.220Z,7.40
2023-03-23T21:38:35.351Z,4.60
2023-03-23T21:43:27.900Z,4.47
2023-03-23T21:48:22.179Z,7.78
2023-03-23T21:53:18.288Z,5.05
2023-03-23T21:58:10.230Z,8.85
2023-03-23T22:03:02.926Z,4.97
2023-03-23T22:07:54.752Z,4.32
2023-03-23T22:12:49.302Z,4.70
2023-03-23T22:17:41.379Z,6.10
2023-03-23T22:22:33.269Z,6.45
2023-03-23T22:27:25.301Z,4.82
2023-03-23T22:32:17.217Z,6.10
2023-03-23T22:37:09.151Z,7.32
2023-03-23T22:42:01.080Z,4.70
2023-03-23T22:46:53.217Z,5.50
2023-03-23T22:51:45.387Z,6.95
2023-03-23T22:56:38.218Z,3.67
2023-03-23T23:01:30.224Z,5.85
2023-03-23T23:06:22.171Z,4.30
2023-03-23T23:11:16.469Z,5.60
2023-03-23T23:16:09.687Z,4.72
2023-03-23T23:21:06.200Z,5.78
2023-03-23T23:25:58.448Z,5.05
2023-03-23T23:30:51.135Z,5.32
2023-03-23T23:35:43.616Z,5.63
2023-03-23T23:40:35.668Z,7.25
2023-03-23T23:45:28.014Z,5.00
2023-03-23T23:50:20.338Z,9.98
2023-03-23T23:55:16.009Z,4.90
